Charlotte, NC (28204)

11:41 AM EDT on May 03, 2015 (GMT -0400)
Midtown | | Change Station
CLOSE
Current Station
Personal Weather Station
Location: Charlotte, NC
Elevation: 650 ft
Nearby Weather Stations

Elev 650 ft 35.21 °N, 80.84 °W | Updated 31 seconds ago

Clear
Clear
76.5 °F
Feels Like 78 °F
N
1.0
Wind Variable Wind from SW
Gusts 18.0 mph

Today
High -- | Low -- °F
--% Chance of Precip.
Yesterday
High -- | Low -- °F
Precip. -- in
6:30 AM 8:10 PM
Full, 100% visible
Pressure 30.20 in
Visibility 10.0 miles
Clouds Scattered Clouds 8000 ft
Scattered Clouds 25000 ft
Heat Index 78 °F
Dew Point 44 °F
Humidity 32%
Rainfall 0.00 in
Snow Depth Not available.
UV 6.2 out of 12
Pollen 7.20 out of 12
Air Quality Not available.
Flu Activity No Activity
METAR KCLT 031452Z VRB03KT 10SM SCT080 SCT250 22/08 A3021 RMK AO2 SLP225 T02170083 51011 $

More Conditions Fewer Conditions

Pressure 30.20 in
Visibility 10.0 miles
Clouds Scattered Clouds 8000 ft
Scattered Clouds 25000 ft
Heat Index 78 °F
Dew Point 44 °F
Humidity 32%
Rainfall 0.00 in
Snow Depth Not available.
UV 6.2 out of 12
Pollen 7.20 out of 12
Air Quality Not available.
Flu Activity No Activity
METAR KCLT 031452Z VRB03KT 10SM SCT080 SCT250 22/08 A3021 RMK AO2 SLP225 T02170083 51011 $

More Conditions Fewer Conditions

Nepal has a long way to go to dig out and rebuild from a devastating earthquake. We have teamed up with several charities and organizations to make contributing to the relief effort as easy as possible.
How you can help: Portlight Strategies | Red Cross

10-Day Weather Forecast

Almanac

Astronomy

May. 03, 2015 Rise Set
Actual Time
Civil Twilight
Nautical Twilight
Astronomical Twilight
Moon
Length of Visible Light
Length of Day
Tomorrow will be .
, % of the Moon is Illuminated

Today's Extremes

State Highs State Lows

Community

WunderPhotos

Upload Photos

1,818,256 photos uploaded!

WunderBlogs® & News

Nearby

Air Quality

  Air Quality AQ Index Pollutant
Not available.

Snow Depth

Station Depth Elevation

Earthquake Activity

City Distance Mag. Time & Date
Minimum magnitude displayed is 2.5.

Coastal Water Temperatures

Place Temperature

Stations

Nearby Weather Stations

Station Location Temp. Windchill Dew Point Humidity Wind Precip. Elev Updated Type